sensor_id;sensor_type;location;lat;lon;timestamp;P1;durP1;ratioP1;P2;durP2;ratioP2
33094;SDS011;19459;53.044;8.910;2023-10-31T00:02:08;24.75;;;15.95;;
33094;SDS011;19459;53.044;8.910;2023-10-31T00:04:34;23.52;;;14.98;;
33094;SDS011;19459;53.044;8.910;2023-10-31T00:07:01;22.33;;;16.30;;
33094;SDS011;19459;53.044;8.910;2023-10-31T00:09:29;24.20;;;15.25;;
33094;SDS011;19459;53.044;8.910;2023-10-31T00:11:55;23.30;;;15.23;;
33094;SDS011;19459;53.044;8.910;2023-10-31T00:14:21;24.13;;;15.20;;
33094;SDS011;19459;53.044;8.910;2023-10-31T00:16:48;25.48;;;16.48;;
33094;SDS011;19459;53.044;8.910;2023-10-31T00:19:14;26.27;;;17.15;;
33094;SDS011;19459;53.044;8.910;2023-10-31T00:21:40;21.02;;;15.23;;
33094;SDS011;19459;53.044;8.910;2023-10-31T00:24:06;25.50;;;15.38;;
33094;SDS011;19459;53.044;8.910;2023-10-31T00:26:33;23.55;;;15.35;;
33094;SDS011;19459;53.044;8.910;2023-10-31T00:29:00;29.85;;;18.33;;
33094;SDS011;19459;53.044;8.910;2023-10-31T00:31:26;26.95;;;16.23;;
33094;SDS011;19459;53.044;8.910;2023-10-31T00:33:56;28.33;;;17.52;;
33094;SDS011;19459;53.044;8.910;2023-10-31T00:36:25;25.95;;;17.60;;
33094;SDS011;19459;53.044;8.910;2023-10-31T00:39:03;24.13;;;15.50;;
33094;SDS011;19459;53.044;8.910;2023-10-31T00:49:42;31.08;;;17.52;;
33094;SDS011;19459;53.044;8.910;2023-10-31T00:52:07;27.77;;;16.38;;
33094;SDS011;19459;53.044;8.910;2023-10-31T00:54:33;30.05;;;17.48;;
33094;SDS011;19459;53.044;8.910;2023-10-31T00:56:59;29.85;;;18.33;;
33094;SDS011;19459;53.044;8.910;2023-10-31T00:59:28;34.90;;;19.05;;
33094;SDS011;19459;53.044;8.910;2023-10-31T01:01:55;26.05;;;17.92;;
33094;SDS011;19459;53.044;8.910;2023-10-31T01:04:27;33.15;;;19.15;;
33094;SDS011;19459;53.044;8.910;2023-10-31T01:06:58;32.95;;;17.98;;
33094;SDS011;19459;53.044;8.910;2023-10-31T01:09:39;31.73;;;18.50;;
33094;SDS011;19459;53.044;8.910;2023-10-31T01:30:09;32.17;;;19.75;;
33094;SDS011;19459;53.044;8.910;2023-10-31T01:36:52;30.75;;;17.90;;
33094;SDS011;19459;53.044;8.910;2023-10-31T01:39:58;33.08;;;19.10;;
33094;SDS011;19459;53.044;8.910;2023-10-31T01:42:25;28.73;;;19.40;;
33094;SDS011;19459;53.044;8.910;2023-10-31T01:52:40;32.40;;;18.38;;
33094;SDS011;19459;53.044;8.910;2023-10-31T01:55:06;33.10;;;20.25;;
33094;SDS011;19459;53.044;8.910;2023-10-31T01:58:15;34.10;;;20.58;;
33094;SDS011;19459;53.044;8.910;2023-10-31T02:04:39;28.02;;;18.42;;
33094;SDS011;19459;53.044;8.910;2023-10-31T02:10:19;36.25;;;21.17;;
33094;SDS011;19459;53.044;8.910;2023-10-31T02:13:17;42.22;;;21.88;;
33094;SDS011;19459;53.044;8.910;2023-10-31T02:21:19;38.72;;;21.77;;
33094;SDS011;19459;53.044;8.910;2023-10-31T02:23:59;34.08;;;21.15;;
33094;SDS011;19459;53.044;8.910;2023-10-31T02:26:32;32.08;;;20.55;;
33094;SDS011;19459;53.044;8.910;2023-10-31T02:29:02;37.87;;;21.30;;
33094;SDS011;19459;53.044;8.910;2023-10-31T02:35:19;38.78;;;21.45;;
33094;SDS011;19459;53.044;8.910;2023-10-31T02:41:46;34.45;;;21.10;;
33094;SDS011;19459;53.044;8.910;2023-10-31T02:44:15;34.00;;;20.73;;
33094;SDS011;19459;53.044;8.910;2023-10-31T02:46:41;33.95;;;20.83;;
33094;SDS011;19459;53.044;8.910;2023-10-31T02:49:07;35.85;;;21.33;;
33094;SDS011;19459;53.044;8.910;2023-10-31T02:51:34;40.40;;;22.30;;
33094;SDS011;19459;53.044;8.910;2023-10-31T02:54:00;36.10;;;21.60;;
33094;SDS011;19459;53.044;8.910;2023-10-31T02:56:26;39.10;;;22.65;;
33094;SDS011;19459;53.044;8.910;2023-10-31T02:58:52;38.80;;;23.05;;
33094;SDS011;19459;53.044;8.910;2023-10-31T03:01:18;46.38;;;23.50;;
33094;SDS011;19459;53.044;8.910;2023-10-31T03:03:45;45.08;;;23.80;;
33094;SDS011;19459;53.044;8.910;2023-10-31T03:06:11;46.08;;;25.63;;
33094;SDS011;19459;53.044;8.910;2023-10-31T03:08:36;40.60;;;23.30;;
33094;SDS011;19459;53.044;8.910;2023-10-31T03:11:02;44.60;;;24.10;;
33094;SDS011;19459;53.044;8.910;2023-10-31T03:13:28;40.50;;;23.33;;
33094;SDS011;19459;53.044;8.910;2023-10-31T03:15:57;43.33;;;23.50;;
33094;SDS011;19459;53.044;8.910;2023-10-31T03:18:42;49.40;;;25.83;;
33094;SDS011;19459;53.044;8.910;2023-10-31T03:21:08;45.03;;;24.85;;
33094;SDS011;19459;53.044;8.910;2023-10-31T03:23:34;45.83;;;26.50;;
33094;SDS011;19459;53.044;8.910;2023-10-31T03:26:00;49.58;;;26.75;;
33094;SDS011;19459;53.044;8.910;2023-10-31T03:28:29;52.65;;;25.40;;
33094;SDS011;19459;53.044;8.910;2023-10-31T03:30:54;54.33;;;27.55;;
33094;SDS011;19459;53.044;8.910;2023-10-31T03:33:22;49.88;;;25.77;;
33094;SDS011;19459;53.044;8.910;2023-10-31T03:36:03;53.53;;;27.77;;
33094;SDS011;19459;53.044;8.910;2023-10-31T03:48:41;64.97;;;29.35;;
33094;SDS011;19459;53.044;8.910;2023-10-31T03:51:07;52.95;;;27.23;;
33094;SDS011;19459;53.044;8.910;2023-10-31T03:53:36;62.85;;;27.80;;
33094;SDS011;19459;53.044;8.910;2023-10-31T03:56:05;65.72;;;29.20;;
33094;SDS011;19459;53.044;8.910;2023-10-31T03:58:31;47.38;;;24.70;;
33094;SDS011;19459;53.044;8.910;2023-10-31T04:00:57;54.35;;;26.15;;
33094;SDS011;19459;53.044;8.910;2023-10-31T04:03:22;58.80;;;26.92;;
33094;SDS011;19459;53.044;8.910;2023-10-31T04:05:58;59.40;;;27.98;;
33094;SDS011;19459;53.044;8.910;2023-10-31T04:08:29;46.95;;;24.17;;
33094;SDS011;19459;53.044;8.910;2023-10-31T04:10:58;59.65;;;26.20;;
33094;SDS011;19459;53.044;8.910;2023-10-31T04:13:24;54.30;;;25.25;;
33094;SDS011;19459;53.044;8.910;2023-10-31T04:15:54;54.40;;;24.30;;
33094;SDS011;19459;53.044;8.910;2023-10-31T04:18:20;53.80;;;24.92;;
33094;SDS011;19459;53.044;8.910;2023-10-31T04:39:44;48.42;;;26.33;;
33094;SDS011;19459;53.044;8.910;2023-10-31T04:45:14;51.40;;;27.33;;
33094;SDS011;19459;53.044;8.910;2023-10-31T04:50:08;52.47;;;27.95;;
33094;SDS011;19459;53.044;8.910;2023-10-31T04:58:05;45.45;;;25.80;;
33094;SDS011;19459;53.044;8.910;2023-10-31T05:00:32;39.70;;;23.95;;
33094;SDS011;19459;53.044;8.910;2023-10-31T05:02:58;38.00;;;24.00;;
33094;SDS011;19459;53.044;8.910;2023-10-31T05:05:27;37.85;;;23.63;;
33094;SDS011;19459;53.044;8.910;2023-10-31T05:08:11;35.08;;;22.48;;
33094;SDS011;19459;53.044;8.910;2023-10-31T05:10:37;39.38;;;23.48;;
33094;SDS011;19459;53.044;8.910;2023-10-31T05:13:09;37.75;;;22.95;;
33094;SDS011;19459;53.044;8.910;2023-10-31T05:15:35;36.97;;;22.00;;
33094;SDS011;19459;53.044;8.910;2023-10-31T05:18:00;34.17;;;22.38;;
33094;SDS011;19459;53.044;8.910;2023-10-31T05:20:26;37.42;;;22.35;;
33094;SDS011;19459;53.044;8.910;2023-10-31T05:22:55;35.58;;;22.95;;
33094;SDS011;19459;53.044;8.910;2023-10-31T05:25:21;30.92;;;20.20;;
33094;SDS011;19459;53.044;8.910;2023-10-31T05:27:47;25.48;;;17.15;;
33094;SDS011;19459;53.044;8.910;2023-10-31T05:30:13;22.95;;;15.50;;
33094;SDS011;19459;53.044;8.910;2023-10-31T05:32:39;21.45;;;14.90;;
33094;SDS011;19459;53.044;8.910;2023-10-31T05:35:05;18.90;;;13.75;;
33094;SDS011;19459;53.044;8.910;2023-10-31T05:37:32;22.77;;;15.43;;
33094;SDS011;19459;53.044;8.910;2023-10-31T05:39:58;19.20;;;14.07;;
33094;SDS011;19459;53.044;8.910;2023-10-31T05:42:24;20.17;;;15.00;;
33094;SDS011;19459;53.044;8.910;2023-10-31T05:44:51;24.25;;;15.73;;
33094;SDS011;19459;53.044;8.910;2023-10-31T05:47:17;21.75;;;14.38;;
33094;SDS011;19459;53.044;8.910;2023-10-31T05:49:43;21.92;;;15.18;;
33094;SDS011;19459;53.044;8.910;2023-10-31T05:52:09;20.90;;;14.30;;
33094;SDS011;19459;53.044;8.910;2023-10-31T05:54:35;10.80;;;8.77;;
33094;SDS011;19459;53.044;8.910;2023-10-31T05:57:01;17.77;;;6.40;;
33094;SDS011;19459;53.044;8.910;2023-10-31T05:59:26;3.92;;;2.83;;
33094;SDS011;19459;53.044;8.910;2023-10-31T06:01:52;5.13;;;2.13;;
33094;SDS011;19459;53.044;8.910;2023-10-31T06:04:18;4.75;;;2.40;;
33094;SDS011;19459;53.044;8.910;2023-10-31T06:06:44;3.22;;;1.77;;
33094;SDS011;19459;53.044;8.910;2023-10-31T06:09:09;1.80;;;1.42;;
33094;SDS011;19459;53.044;8.910;2023-10-31T06:11:40;1.65;;;1.45;;
33094;SDS011;19459;53.044;8.910;2023-10-31T06:14:10;1.40;;;1.30;;
33094;SDS011;19459;53.044;8.910;2023-10-31T06:16:40;2.28;;;1.35;;
33094;SDS011;19459;53.044;8.910;2023-10-31T06:19:07;1.60;;;1.50;;
33094;SDS011;19459;53.044;8.910;2023-10-31T06:21:33;2.40;;;1.75;;
33094;SDS011;19459;53.044;8.910;2023-10-31T06:23:58;3.40;;;1.63;;
33094;SDS011;19459;53.044;8.910;2023-10-31T06:26:27;4.43;;;2.13;;
33094;SDS011;19459;53.044;8.910;2023-10-31T06:28:53;5.55;;;2.65;;
33094;SDS011;19459;53.044;8.910;2023-10-31T06:31:19;2.88;;;2.58;;
33094;SDS011;19459;53.044;8.910;2023-10-31T06:33:45;4.88;;;2.85;;
33094;SDS011;19459;53.044;8.910;2023-10-31T06:36:14;3.10;;;2.80;;
33094;SDS011;19459;53.044;8.910;2023-10-31T06:38:40;2.95;;;2.75;;
33094;SDS011;19459;53.044;8.910;2023-10-31T06:41:05;3.40;;;3.05;;
33094;SDS011;19459;53.044;8.910;2023-10-31T06:43:31;5.10;;;2.42;;
33094;SDS011;19459;53.044;8.910;2023-10-31T06:45:57;3.20;;;2.22;;
33094;SDS011;19459;53.044;8.910;2023-10-31T06:48:25;3.17;;;2.00;;
33094;SDS011;19459;53.044;8.910;2023-10-31T06:50:51;2.88;;;1.48;;
33094;SDS011;19459;53.044;8.910;2023-10-31T06:53:17;3.55;;;1.38;;
33094;SDS011;19459;53.044;8.910;2023-10-31T06:55:42;2.50;;;1.30;;
33094;SDS011;19459;53.044;8.910;2023-10-31T06:58:08;2.40;;;1.00;;
33094;SDS011;19459;53.044;8.910;2023-10-31T07:00:34;2.83;;;1.20;;
33094;SDS011;19459;53.044;8.910;2023-10-31T07:03:09;2.03;;;1.10;;
33094;SDS011;19459;53.044;8.910;2023-10-31T07:05:39;5.85;;;1.60;;
33094;SDS011;19459;53.044;8.910;2023-10-31T07:08:06;4.55;;;1.48;;
33094;SDS011;19459;53.044;8.910;2023-10-31T07:10:32;2.80;;;0.98;;
33094;SDS011;19459;53.044;8.910;2023-10-31T07:13:01;1.60;;;1.13;;
33094;SDS011;19459;53.044;8.910;2023-10-31T07:15:27;1.08;;;0.98;;
33094;SDS011;19459;53.044;8.910;2023-10-31T07:17:52;1.77;;;1.10;;
33094;SDS011;19459;53.044;8.910;2023-10-31T07:20:18;1.55;;;1.00;;
33094;SDS011;19459;53.044;8.910;2023-10-31T07:22:44;1.08;;;0.80;;
33094;SDS011;19459;53.044;8.910;2023-10-31T07:25:10;1.80;;;1.00;;
33094;SDS011;19459;53.044;8.910;2023-10-31T07:27:36;2.50;;;1.00;;
33094;SDS011;19459;53.044;8.910;2023-10-31T07:30:02;2.20;;;1.30;;
33094;SDS011;19459;53.044;8.910;2023-10-31T07:32:31;3.65;;;1.30;;
33094;SDS011;19459;53.044;8.910;2023-10-31T07:34:57;2.55;;;1.33;;
33094;SDS011;19459;53.044;8.910;2023-10-31T07:37:23;5.55;;;1.85;;
33094;SDS011;19459;53.044;8.910;2023-10-31T07:39:49;3.67;;;1.38;;
33094;SDS011;19459;53.044;8.910;2023-10-31T07:42:16;4.40;;;1.27;;
33094;SDS011;19459;53.044;8.910;2023-10-31T07:44:42;3.45;;;1.40;;
33094;SDS011;19459;53.044;8.910;2023-10-31T07:47:07;4.03;;;2.13;;
33094;SDS011;19459;53.044;8.910;2023-10-31T07:49:33;1.60;;;1.40;;
33094;SDS011;19459;53.044;8.910;2023-10-31T07:51:59;1.73;;;1.05;;
33094;SDS011;19459;53.044;8.910;2023-10-31T07:54:25;5.15;;;1.17;;
33094;SDS011;19459;53.044;8.910;2023-10-31T07:56:51;1.45;;;0.82;;
33094;SDS011;19459;53.044;8.910;2023-10-31T07:59:17;5.68;;;1.58;;
33094;SDS011;19459;53.044;8.910;2023-10-31T08:01:43;2.13;;;1.20;;
33094;SDS011;19459;53.044;8.910;2023-10-31T08:04:09;1.52;;;1.20;;
33094;SDS011;19459;53.044;8.910;2023-10-31T08:06:35;1.60;;;1.25;;
33094;SDS011;19459;53.044;8.910;2023-10-31T08:09:00;1.60;;;0.90;;
33094;SDS011;19459;53.044;8.910;2023-10-31T08:11:27;1.60;;;0.90;;
33094;SDS011;19459;53.044;8.910;2023-10-31T08:13:53;1.33;;;0.88;;
33094;SDS011;19459;53.044;8.910;2023-10-31T08:16:19;2.65;;;1.08;;
33094;SDS011;19459;53.044;8.910;2023-10-31T08:18:45;4.55;;;0.85;;
33094;SDS011;19459;53.044;8.910;2023-10-31T08:21:12;1.70;;;1.10;;
33094;SDS011;19459;53.044;8.910;2023-10-31T08:23:38;4.32;;;1.15;;
33094;SDS011;19459;53.044;8.910;2023-10-31T08:26:04;2.72;;;1.00;;
33094;SDS011;19459;53.044;8.910;2023-10-31T08:28:30;1.52;;;0.93;;
33094;SDS011;19459;53.044;8.910;2023-10-31T08:30:56;1.05;;;0.80;;
33094;SDS011;19459;53.044;8.910;2023-10-31T08:33:25;2.95;;;1.00;;
33094;SDS011;19459;53.044;8.910;2023-10-31T08:35:50;3.13;;;1.15;;
33094;SDS011;19459;53.044;8.910;2023-10-31T08:38:16;2.45;;;1.02;;
33094;SDS011;19459;53.044;8.910;2023-10-31T08:40:42;1.65;;;1.25;;
33094;SDS011;19459;53.044;8.910;2023-10-31T08:43:08;1.48;;;0.85;;
33094;SDS011;19459;53.044;8.910;2023-10-31T08:45:34;2.03;;;1.17;;
33094;SDS011;19459;53.044;8.910;2023-10-31T08:48:00;3.13;;;1.00;;
33094;SDS011;19459;53.044;8.910;2023-10-31T08:50:26;4.53;;;1.30;;
33094;SDS011;19459;53.044;8.910;2023-10-31T08:52:53;3.83;;;1.25;;
33094;SDS011;19459;53.044;8.910;2023-10-31T08:55:18;3.85;;;1.50;;
33094;SDS011;19459;53.044;8.910;2023-10-31T08:57:46;5.05;;;1.58;;
33094;SDS011;19459;53.044;8.910;2023-10-31T09:00:12;2.67;;;1.30;;
33094;SDS011;19459;53.044;8.910;2023-10-31T09:02:39;3.83;;;1.45;;
33094;SDS011;19459;53.044;8.910;2023-10-31T09:05:05;2.42;;;1.60;;
33094;SDS011;19459;53.044;8.910;2023-10-31T09:07:31;3.22;;;1.60;;
33094;SDS011;19459;53.044;8.910;2023-10-31T09:09:57;4.57;;;1.58;;
33094;SDS011;19459;53.044;8.910;2023-10-31T09:12:23;4.82;;;1.17;;
33094;SDS011;19459;53.044;8.910;2023-10-31T09:14:49;3.03;;;1.10;;
33094;SDS011;19459;53.044;8.910;2023-10-31T09:17:14;2.72;;;0.90;;
33094;SDS011;19459;53.044;8.910;2023-10-31T09:19:40;1.98;;;1.05;;
33094;SDS011;19459;53.044;8.910;2023-10-31T09:22:06;1.77;;;1.20;;
33094;SDS011;19459;53.044;8.910;2023-10-31T09:24:33;1.77;;;1.20;;
33094;SDS011;19459;53.044;8.910;2023-10-31T09:26:59;3.38;;;1.20;;
33094;SDS011;19459;53.044;8.910;2023-10-31T09:29:24;3.83;;;1.27;;
33094;SDS011;19459;53.044;8.910;2023-10-31T09:31:50;2.65;;;1.88;;
33094;SDS011;19459;53.044;8.910;2023-10-31T09:34:16;5.15;;;1.92;;
33094;SDS011;19459;53.044;8.910;2023-10-31T09:36:43;1.75;;;1.65;;
33094;SDS011;19459;53.044;8.910;2023-10-31T09:39:08;3.13;;;1.90;;
33094;SDS011;19459;53.044;8.910;2023-10-31T09:41:34;4.85;;;2.05;;
33094;SDS011;19459;53.044;8.910;2023-10-31T09:44:00;3.60;;;2.83;;
33094;SDS011;19459;53.044;8.910;2023-10-31T09:46:28;3.90;;;2.13;;
33094;SDS011;19459;53.044;8.910;2023-10-31T09:48:54;3.33;;;2.40;;
33094;SDS011;19459;53.044;8.910;2023-10-31T09:51:21;3.50;;;3.03;;
33094;SDS011;19459;53.044;8.910;2023-10-31T09:53:47;8.80;;;3.00;;
33094;SDS011;19459;53.044;8.910;2023-10-31T09:56:13;3.75;;;3.15;;
33094;SDS011;19459;53.044;8.910;2023-10-31T09:58:40;5.35;;;2.83;;
33094;SDS011;19459;53.044;8.910;2023-10-31T10:01:06;5.93;;;3.13;;
33094;SDS011;19459;53.044;8.910;2023-10-31T10:03:32;5.70;;;2.97;;
33094;SDS011;19459;53.044;8.910;2023-10-31T10:05:59;4.00;;;2.80;;
33094;SDS011;19459;53.044;8.910;2023-10-31T10:08:25;8.43;;;4.28;;
33094;SDS011;19459;53.044;8.910;2023-10-31T10:10:51;6.28;;;3.85;;
33094;SDS011;19459;53.044;8.910;2023-10-31T10:13:17;5.05;;;3.88;;
33094;SDS011;19459;53.044;8.910;2023-10-31T10:15:47;6.03;;;4.10;;
33094;SDS011;19459;53.044;8.910;2023-10-31T10:18:30;8.30;;;4.32;;
33094;SDS011;19459;53.044;8.910;2023-10-31T10:21:01;7.47;;;4.95;;
33094;SDS011;19459;53.044;8.910;2023-10-31T10:23:28;6.15;;;4.45;;
33094;SDS011;19459;53.044;8.910;2023-10-31T10:25:55;8.45;;;4.80;;
33094;SDS011;19459;53.044;8.910;2023-10-31T10:28:23;10.90;;;4.47;;
33094;SDS011;19459;53.044;8.910;2023-10-31T10:30:49;6.57;;;4.50;;
33094;SDS011;19459;53.044;8.910;2023-10-31T10:33:17;10.75;;;5.35;;
33094;SDS011;19459;53.044;8.910;2023-10-31T10:35:43;9.70;;;5.60;;
33094;SDS011;19459;53.044;8.910;2023-10-31T10:38:14;11.38;;;3.83;;
33094;SDS011;19459;53.044;8.910;2023-10-31T10:40:43;5.93;;;4.13;;
33094;SDS011;19459;53.044;8.910;2023-10-31T10:43:24;4.38;;;3.92;;
33094;SDS011;19459;53.044;8.910;2023-10-31T10:45:58;5.93;;;3.85;;
33094;SDS011;19459;53.044;8.910;2023-10-31T10:48:25;7.43;;;4.18;;
33094;SDS011;19459;53.044;8.910;2023-10-31T10:51:07;6.78;;;3.15;;
33094;SDS011;19459;53.044;8.910;2023-10-31T10:53:48;6.00;;;2.70;;
33094;SDS011;19459;53.044;8.910;2023-10-31T10:56:22;11.95;;;3.75;;
33094;SDS011;19459;53.044;8.910;2023-10-31T11:01:39;3.97;;;2.28;;
33094;SDS011;19459;53.044;8.910;2023-10-31T11:04:07;4.55;;;2.13;;
33094;SDS011;19459;53.044;8.910;2023-10-31T11:06:33;11.90;;;2.97;;
33094;SDS011;19459;53.044;8.910;2023-10-31T11:09:01;4.43;;;2.47;;
33094;SDS011;19459;53.044;8.910;2023-10-31T11:11:28;7.63;;;3.20;;
33094;SDS011;19459;53.044;8.910;2023-10-31T11:13:54;6.47;;;3.15;;
33094;SDS011;19459;53.044;8.910;2023-10-31T11:16:36;9.60;;;4.93;;
33094;SDS011;19459;53.044;8.910;2023-10-31T11:19:10;9.88;;;5.47;;
33094;SDS011;19459;53.044;8.910;2023-10-31T11:21:36;7.90;;;6.18;;
33094;SDS011;19459;53.044;8.910;2023-10-31T11:24:27;8.40;;;6.90;;
33094;SDS011;19459;53.044;8.910;2023-10-31T11:27:00;10.32;;;6.80;;
33094;SDS011;19459;53.044;8.910;2023-10-31T11:29:28;8.60;;;6.18;;
33094;SDS011;19459;53.044;8.910;2023-10-31T11:31:56;15.52;;;6.68;;
33094;SDS011;19459;53.044;8.910;2023-10-31T11:34:23;7.75;;;7.00;;
33094;SDS011;19459;53.044;8.910;2023-10-31T11:36:52;11.55;;;6.97;;
33094;SDS011;19459;53.044;8.910;2023-10-31T11:39:18;10.63;;;6.95;;
33094;SDS011;19459;53.044;8.910;2023-10-31T11:41:54;10.90;;;7.13;;
33094;SDS011;19459;53.044;8.910;2023-10-31T11:44:27;13.43;;;7.45;;
33094;SDS011;19459;53.044;8.910;2023-10-31T11:46:53;12.00;;;7.60;;
33094;SDS011;19459;53.044;8.910;2023-10-31T11:49:45;7.40;;;6.55;;
33094;SDS011;19459;53.044;8.910;2023-10-31T11:52:17;13.15;;;5.95;;
33094;SDS011;19459;53.044;8.910;2023-10-31T11:54:43;8.65;;;6.10;;
33094;SDS011;19459;53.044;8.910;2023-10-31T11:57:09;8.25;;;6.57;;
33094;SDS011;19459;53.044;8.910;2023-10-31T11:59:36;9.80;;;6.30;;
33094;SDS011;19459;53.044;8.910;2023-10-31T12:02:16;7.97;;;5.47;;
33094;SDS011;19459;53.044;8.910;2023-10-31T12:04:45;6.30;;;5.70;;
33094;SDS011;19459;53.044;8.910;2023-10-31T12:07:11;6.70;;;5.93;;
33094;SDS011;19459;53.044;8.910;2023-10-31T12:09:46;5.15;;;4.65;;
33094;SDS011;19459;53.044;8.910;2023-10-31T12:12:13;6.03;;;4.63;;
33094;SDS011;19459;53.044;8.910;2023-10-31T12:14:40;6.32;;;4.53;;
33094;SDS011;19459;53.044;8.910;2023-10-31T12:17:06;7.90;;;3.92;;
33094;SDS011;19459;53.044;8.910;2023-10-31T12:19:34;5.70;;;4.38;;
33094;SDS011;19459;53.044;8.910;2023-10-31T12:22:00;9.60;;;4.35;;
33094;SDS011;19459;53.044;8.910;2023-10-31T12:24:28;5.43;;;3.72;;
33094;SDS011;19459;53.044;8.910;2023-10-31T12:26:53;8.70;;;4.05;;
33094;SDS011;19459;53.044;8.910;2023-10-31T12:29:20;9.55;;;3.75;;
33094;SDS011;19459;53.044;8.910;2023-10-31T12:31:50;4.90;;;3.22;;
33094;SDS011;19459;53.044;8.910;2023-10-31T12:34:19;7.80;;;3.78;;
33094;SDS011;19459;53.044;8.910;2023-10-31T12:36:48;6.45;;;3.38;;
33094;SDS011;19459;53.044;8.910;2023-10-31T12:39:17;5.70;;;4.13;;
33094;SDS011;19459;53.044;8.910;2023-10-31T12:41:50;8.55;;;4.10;;
33094;SDS011;19459;53.044;8.910;2023-10-31T12:44:24;6.35;;;3.72;;
33094;SDS011;19459;53.044;8.910;2023-10-31T12:46:52;7.72;;;3.97;;
33094;SDS011;19459;53.044;8.910;2023-10-31T12:49:18;7.55;;;4.25;;
33094;SDS011;19459;53.044;8.910;2023-10-31T12:51:58;5.00;;;4.25;;
33094;SDS011;19459;53.044;8.910;2023-10-31T12:57:02;4.15;;;2.45;;
33094;SDS011;19459;53.044;8.910;2023-10-31T12:59:34;2.25;;;1.63;;
33094;SDS011;19459;53.044;8.910;2023-10-31T13:02:03;4.13;;;0.82;;
33094;SDS011;19459;53.044;8.910;2023-10-31T13:04:30;4.65;;;1.17;;
33094;SDS011;19459;53.044;8.910;2023-10-31T13:06:57;2.78;;;1.35;;
33094;SDS011;19459;53.044;8.910;2023-10-31T13:11:57;4.50;;;1.40;;
33094;SDS011;19459;53.044;8.910;2023-10-31T13:14:30;1.38;;;0.90;;
33094;SDS011;19459;53.044;8.910;2023-10-31T13:16:57;1.83;;;0.75;;
33094;SDS011;19459;53.044;8.910;2023-10-31T13:19:24;2.88;;;1.63;;
33094;SDS011;19459;53.044;8.910;2023-10-31T13:21:51;4.82;;;1.75;;
33094;SDS011;19459;53.044;8.910;2023-10-31T13:24:17;3.42;;;1.38;;
33094;SDS011;19459;53.044;8.910;2023-10-31T13:26:44;3.03;;;1.13;;
33094;SDS011;19459;53.044;8.910;2023-10-31T13:29:10;5.20;;;2.25;;
33094;SDS011;19459;53.044;8.910;2023-10-31T13:31:39;3.05;;;2.53;;
33094;SDS011;19459;53.044;8.910;2023-10-31T13:34:05;4.78;;;2.15;;
33094;SDS011;19459;53.044;8.910;2023-10-31T13:36:31;5.50;;;2.30;;
33094;SDS011;19459;53.044;8.910;2023-10-31T13:38:57;4.10;;;1.30;;
33094;SDS011;19459;53.044;8.910;2023-10-31T13:41:23;3.85;;;1.27;;
33094;SDS011;19459;53.044;8.910;2023-10-31T13:43:48;3.30;;;1.10;;
33094;SDS011;19459;53.044;8.910;2023-10-31T13:46:14;6.30;;;1.60;;
33094;SDS011;19459;53.044;8.910;2023-10-31T13:48:40;6.13;;;1.42;;
33094;SDS011;19459;53.044;8.910;2023-10-31T13:51:06;5.05;;;2.22;;
33094;SDS011;19459;53.044;8.910;2023-10-31T13:53:32;5.55;;;2.03;;
33094;SDS011;19459;53.044;8.910;2023-10-31T13:55:58;2.20;;;1.35;;
33094;SDS011;19459;53.044;8.910;2023-10-31T13:58:23;2.20;;;1.30;;
33094;SDS011;19459;53.044;8.910;2023-10-31T14:00:49;2.65;;;0.93;;
33094;SDS011;19459;53.044;8.910;2023-10-31T14:03:15;2.70;;;1.00;;
33094;SDS011;19459;53.044;8.910;2023-10-31T14:05:41;4.05;;;1.50;;
33094;SDS011;19459;53.044;8.910;2023-10-31T14:08:07;1.60;;;1.50;;
33094;SDS011;19459;53.044;8.910;2023-10-31T14:10:34;3.72;;;1.40;;
33094;SDS011;19459;53.044;8.910;2023-10-31T14:13:00;1.67;;;1.33;;
33094;SDS011;19459;53.044;8.910;2023-10-31T14:15:25;1.80;;;1.10;;
33094;SDS011;19459;53.044;8.910;2023-10-31T14:17:51;2.33;;;1.45;;
33094;SDS011;19459;53.044;8.910;2023-10-31T14:20:17;3.65;;;1.40;;
33094;SDS011;19459;53.044;8.910;2023-10-31T14:22:47;1.30;;;1.05;;
33094;SDS011;19459;53.044;8.910;2023-10-31T14:25:14;4.28;;;2.28;;
33094;SDS011;19459;53.044;8.910;2023-10-31T14:27:40;3.60;;;2.63;;
33094;SDS011;19459;53.044;8.910;2023-10-31T14:30:07;3.15;;;2.85;;
33094;SDS011;19459;53.044;8.910;2023-10-31T14:32:40;2.25;;;1.58;;
33094;SDS011;19459;53.044;8.910;2023-10-31T14:35:05;3.45;;;1.70;;
33094;SDS011;19459;53.044;8.910;2023-10-31T14:37:32;3.35;;;1.60;;
33094;SDS011;19459;53.044;8.910;2023-10-31T14:39:58;2.70;;;1.92;;
33094;SDS011;19459;53.044;8.910;2023-10-31T14:42:24;3.78;;;1.65;;
33094;SDS011;19459;53.044;8.910;2023-10-31T14:44:50;7.43;;;2.92;;
33094;SDS011;19459;53.044;8.910;2023-10-31T14:47:17;6.05;;;2.38;;
33094;SDS011;19459;53.044;8.910;2023-10-31T14:49:44;3.63;;;2.00;;
33094;SDS011;19459;53.044;8.910;2023-10-31T14:52:09;3.97;;;1.45;;
33094;SDS011;19459;53.044;8.910;2023-10-31T14:54:35;5.72;;;3.50;;
33094;SDS011;19459;53.044;8.910;2023-10-31T14:57:01;4.68;;;4.20;;
33094;SDS011;19459;53.044;8.910;2023-10-31T14:59:27;7.55;;;2.47;;
33094;SDS011;19459;53.044;8.910;2023-10-31T15:01:53;3.85;;;1.60;;
33094;SDS011;19459;53.044;8.910;2023-10-31T15:04:19;6.35;;;2.67;;
33094;SDS011;19459;53.044;8.910;2023-10-31T15:06:45;6.05;;;2.60;;
33094;SDS011;19459;53.044;8.910;2023-10-31T15:09:11;6.03;;;2.92;;
33094;SDS011;19459;53.044;8.910;2023-10-31T15:11:36;2.83;;;1.88;;
33094;SDS011;19459;53.044;8.910;2023-10-31T15:14:02;7.72;;;3.60;;
33094;SDS011;19459;53.044;8.910;2023-10-31T15:16:29;10.93;;;2.80;;
33094;SDS011;19459;53.044;8.910;2023-10-31T15:18:55;7.60;;;2.08;;
33094;SDS011;19459;53.044;8.910;2023-10-31T15:21:20;3.65;;;2.30;;
33094;SDS011;19459;53.044;8.910;2023-10-31T15:23:47;8.05;;;2.42;;
33094;SDS011;19459;53.044;8.910;2023-10-31T15:26:13;4.80;;;1.80;;
33094;SDS011;19459;53.044;8.910;2023-10-31T15:28:39;6.78;;;1.70;;
33094;SDS011;19459;53.044;8.910;2023-10-31T15:31:07;7.22;;;2.05;;
33094;SDS011;19459;53.044;8.910;2023-10-31T15:33:33;3.63;;;1.67;;
33094;SDS011;19459;53.044;8.910;2023-10-31T15:35:59;5.93;;;1.88;;
33094;SDS011;19459;53.044;8.910;2023-10-31T15:38:25;5.38;;;1.67;;
33094;SDS011;19459;53.044;8.910;2023-10-31T15:40:54;4.57;;;1.70;;
33094;SDS011;19459;53.044;8.910;2023-10-31T15:43:20;10.95;;;2.17;;
33094;SDS011;19459;53.044;8.910;2023-10-31T15:45:45;6.40;;;1.63;;
33094;SDS011;19459;53.044;8.910;2023-10-31T15:48:11;4.72;;;2.38;;
33094;SDS011;19459;53.044;8.910;2023-10-31T15:50:38;6.53;;;2.50;;
33094;SDS011;19459;53.044;8.910;2023-10-31T15:53:04;6.45;;;2.20;;
33094;SDS011;19459;53.044;8.910;2023-10-31T15:55:30;9.68;;;2.60;;
33094;SDS011;19459;53.044;8.910;2023-10-31T15:57:56;6.25;;;2.08;;
33094;SDS011;19459;53.044;8.910;2023-10-31T16:00:22;10.45;;;3.95;;
33094;SDS011;19459;53.044;8.910;2023-10-31T16:02:49;9.55;;;2.63;;
33094;SDS011;19459;53.044;8.910;2023-10-31T16:05:14;14.32;;;3.10;;
33094;SDS011;19459;53.044;8.910;2023-10-31T16:07:40;8.13;;;2.85;;
33094;SDS011;19459;53.044;8.910;2023-10-31T16:10:06;6.10;;;3.60;;
33094;SDS011;19459;53.044;8.910;2023-10-31T16:12:32;5.88;;;3.22;;
33094;SDS011;19459;53.044;8.910;2023-10-31T16:14:58;5.00;;;3.55;;
33094;SDS011;19459;53.044;8.910;2023-10-31T16:17:24;9.63;;;4.32;;
33094;SDS011;19459;53.044;8.910;2023-10-31T16:19:50;8.60;;;5.43;;
33094;SDS011;19459;53.044;8.910;2023-10-31T16:22:16;12.32;;;8.65;;
33094;SDS011;19459;53.044;8.910;2023-10-31T16:24:43;24.15;;;9.75;;
33094;SDS011;19459;53.044;8.910;2023-10-31T16:27:10;21.83;;;10.27;;
33094;SDS011;19459;53.044;8.910;2023-10-31T16:29:36;19.25;;;10.32;;